| time (UTC) | temp F | wind direction | speed MPH | gust MPH | rain 1hr in | rain 24hr in | rain mn in | humidity % | barometer mb |
| 20260504204203 | 60 | 182 | 5.0 | 16.0 | 0.00 | 0.00 | 0.00 | 70 | 1011.2 |
| 20260504203703 | 60 | 215 | 5.0 | 16.0 | 0.00 | 0.00 | 0.00 | 70 | 1011.2 |
| 20260504203203 | 60 | 222 | 5.0 | 15.0 | 0.00 | 0.00 | 0.00 | 69 | 1011.2 |
| 20260504202701 | 60 | 252 | 6.0 | 15.0 | 0.00 | 0.00 | 0.00 | 69 | 1011.3 |
| 20260504202202 | 60 | 190 | 7.0 | 20.0 | 0.00 | 0.00 | 0.00 | 68 | 1011.3 |
| 20260504201700 | 61 | 146 | 6.0 | 20.0 | 0.00 | 0.00 | 0.00 | 67 | 1011.2 |
| 20260504201159 | 61 | 236 | 4.0 | 15.0 | 0.00 | 0.00 | 0.00 | 68 | 1011.3 |
| 20260504200705 | 61 | 212 | 7.0 | 16.0 | 0.00 | 0.00 | 0.00 | 68 | 1011.3 |
| 20260504200700 | 61 | 232 | 5.0 | 15.0 | 0.00 | 0.00 | 0.00 | 68 | 1011.2 |
| 20260504195657 | 61 | 162 | 7.0 | 16.0 | 0.00 | 0.00 | 0.00 | 67 | 1011.4 |
| 20260504195157 | 61 | 215 | 6.0 | 16.0 | 0.00 | 0.00 | 0.00 | 68 | 1011.5 |
| 20260504194657 | 61 | 160 | 6.0 | 17.0 | 0.00 | 0.00 | 0.00 | 67 | 1011.5 |
| 20260504194428 | 61 | 234 | 6.0 | 17.0 | 0.00 | 0.00 | 0.00 | 68 | 1011.5 |
| 20260504193657 | 61 | 171 | 6.0 | 15.0 | 0.00 | 0.00 | 0.00 | 68 | 1011.6 |
| 20260504193159 | 61 | 229 | 6.0 | 18.0 | 0.00 | 0.00 | 0.00 | 66 | 1011.7 |
| 20260504192700 | 62 | 234 | 5.0 | 18.0 | 0.00 | 0.00 | 0.00 | 67 | 1011.6 |
| 20260504192153 | 62 | 242 | 7.0 | 17.0 | 0.00 | 0.00 | 0.00 | 66 | 1011.6 |
| 20260504191648 | 62 | 288 | 6.0 | 17.0 | 0.00 | 0.00 | 0.00 | 67 | 1011.7 |
| 20260504191142 | 62 | 241 | 6.0 | 15.0 | 0.00 | 0.00 | 0.00 | 66 | 1011.7 |
| 20260504190636 | 62 | 204 | 5.0 | 15.0 | 0.00 | 0.00 | 0.00 | 65 | 1011.8 |
| 20260504190134 | 62 | 201 | 6.0 | 19.0 | 0.00 | 0.00 | 0.00 | 65 | 1011.9 |
| 20260504185634 | 62 | 180 | 6.0 | 20.0 | 0.00 | 0.00 | 0.00 | 66 | 1011.9 |
| 20260504185135 | 61 | 198 | 6.0 | 20.0 | 0.00 | 0.00 | 0.00 | 67 | 1012.0 |
| 20260504184635 | 61 | 213 | 6.0 | 16.0 | 0.00 | 0.00 | 0.00 | 66 | 1012.1 |
| 20260504184134 | 62 | 249 | 6.0 | 16.0 | 0.00 | 0.00 | 0.00 | 66 | 1012.1 |
| 20260504183635 | 62 | 193 | 6.0 | 16.0 | 0.00 | 0.00 | 0.00 | 66 | 1012.2 |
| 20260504183409 | 63 | 219 | 5.0 | 14.0 | 0.00 | 0.00 | 0.00 | 65 | 1012.2 |
| 20260504183133 | 62 | 225 | 5.0 | 16.0 | 0.00 | 0.00 | 0.00 | 65 | 1012.2 |
| 20260504182134 | 63 | 195 | 5.0 | 13.0 | 0.00 | 0.00 | 0.00 | 64 | 1012.2 |
| 20260504181634 | 64 | 204 | 5.0 | 26.0 | 0.00 | 0.00 | 0.00 | 65 | 1012.3 |
| 20260504181133 | 63 | 209 | 5.0 | 26.0 | 0.00 | 0.00 | 0.00 | 65 | 1012.3 |
| 20260504180634 | 62 | 257 | 6.0 | 15.0 | 0.00 | 0.00 | 0.00 | 65 | 1012.4 |
| 20260504180134 | 62 | 153 | 6.0 | 18.0 | 0.00 | 0.00 | 0.00 | 66 | 1012.4 |
| 20260504175635 | 63 | 223 | 6.0 | 18.0 | 0.00 | 0.00 | 0.00 | 65 | 1012.4 |
| 20260504175135 | 63 | 238 | 6.0 | 17.0 | 0.00 | 0.00 | 0.00 | 65 | 1012.4 |
| 20260504174636 | 63 | 265 | 6.0 | 17.0 | 0.00 | 0.00 | 0.00 | 66 | 1012.4 |
| 20260504174130 | 63 | 217 | 5.0 | 17.0 | 0.00 | 0.00 | 0.00 | 65 | 1012.5 |
| 20260504173624 | 63 | 223 | 5.0 | 15.0 | 0.00 | 0.00 | 0.00 | 65 | 1012.5 |
| 20260504173349 | 62 | 234 | 6.0 | 16.0 | 0.00 | 0.00 | 0.00 | 68 | 1012.6 |
| 20260504172612 | 62 | 224 | 6.0 | 16.0 | 0.00 | 0.00 | 0.00 | 66 | 1012.7 |
| 20260504172106 | 62 | 212 | 5.0 | 19.0 | 0.00 | 0.00 | 0.00 | 67 | 1012.7 |
| 20260504171600 | 62 | 210 | 5.0 | 19.0 | 0.00 | 0.00 | 0.00 | 67 | 1012.8 |
| 20260504171054 | 61 | 209 | 6.0 | 15.0 | 0.00 | 0.00 | 0.00 | 69 | 1013.0 |
| 20260504170819 | 62 | 223 | 5.0 | 15.0 | 0.00 | 0.00 | 0.00 | 66 | 1013.1 |
| 20260504160436 | 64 | 225 | 5.0 | 16.0 | 0.00 | 0.00 | 0.00 | 62 | 1013.5 |
| 20260504151101 | 64 | 221 | 4.0 | 11.0 | 0.00 | 0.00 | 0.00 | 54 | 1014.0 |
| 20260504150324 | 65 | 238 | 4.0 | 10.0 | 0.00 | 0.00 | 0.00 | 55 | 1014.0 |
| 20260504141224 | 62 | 236 | 4.0 | 11.0 | 0.00 | 0.00 | 0.00 | 58 | 1014.1 |
| 20260504140718 | 63 | 291 | 4.0 | 11.0 | 0.00 | 0.00 | 0.00 | 58 | 1014.1 |
| 20260504140442 | 62 | 193 | 5.0 | 11.0 | 0.00 | 0.00 | 0.00 | 59 | 1014.2 |
| 20260504130605 | 60 | 237 | 4.0 | 14.0 | 0.00 | 0.00 | 0.00 | 62 | 1014.6 |
| 20260504110520 | 49 | 207 | 2.0 | 6.0 | 0.00 | 0.00 | 0.00 | 76 | 1014.7 |
| 20260504100408 | 47 | 271 | 2.0 | 6.0 | 0.00 | 0.00 | 0.00 | 74 | 1014.4 |
| 20260504081549 | 46 | 244 | 2.0 | 4.0 | 0.00 | 0.00 | 0.00 | 71 | 1013.8 |
| 20260504081049 | 46 | 248 | 2.0 | 4.0 | 0.00 | 0.00 | 0.00 | 70 | 1013.8 |
| 20260504080319 | 46 | 255 | 2.0 | 4.0 | 0.00 | 0.00 | 0.00 | 70 | 1013.8 |
| 20260504060240 | 47 | 234 | 2.0 | 5.0 | 0.00 | 0.00 | 0.00 | 75 | 1013.2 |
| 20260504050700 | 45 | 273 | 2.0 | 6.0 | 0.00 | 0.00 | 0.00 | 75 | 1012.9 |
| 20260504050200 | 44 | 274 | 1.0 | 6.0 | 0.00 | 0.00 | 0.00 | 74 | 1012.9 |
| 20260504045930 | 44 | 262 | 1.0 | 6.0 | 0.00 | 0.00 | 0.00 | 74 | 1013.0 |
| 20260504045158 | 44 | 263 | 1.0 | 3.0 | 0.00 | 0.00 | 0.00 | 74 | 1012.9 |
| 20260504044658 | 44 | 265 | 1.0 | 4.0 | 0.00 | 0.00 | 0.00 | 73 | 1013.0 |
| 20260504044155 | 44 | 265 | 1.0 | 8.0 | 0.00 | 0.00 | 0.00 | 73 | 1013.1 |
| 20260504043657 | 44 | 264 | 1.0 | 8.0 | 0.00 | 0.00 | 0.00 | 72 | 1013.0 |
| 20260504043427 | 44 | 237 | 1.0 | 3.0 | 0.00 | 0.00 | 0.00 | 72 | 1013.1 |
| 20260504042657 | 44 | 237 | 1.0 | 3.0 | 0.00 | 0.00 | 0.00 | 72 | 1013.1 |
| 20260504042157 | 44 | 237 | 1.0 | 3.0 | 0.00 | 0.00 | 0.00 | 71 | 1013.0 |
| 20260504041925 | 44 | 236 | 0.0 | 2.0 | 0.00 | 0.00 | 0.00 | 70 | 1012.9 |
| 20260504041425 | 44 | 236 | 0.0 | 2.0 | 0.00 | 0.00 | 0.00 | 70 | 1012.9 |
| 20260504040651 | 44 | 236 | 0.0 | 0.0 | 0.00 | 0.00 | 0.00 | 69 | 1012.9 |
| 20260504040148 | 44 | 236 | 0.0 | 1.0 | 0.00 | 0.00 | 0.00 | 68 | 1012.9 |
| 20260504035649 | 44 | 236 | 0.0 | 1.0 | 0.00 | 0.00 | 0.00 | 68 | 1012.9 |
| 20260504035143 | 44 | 235 | 0.0 | 2.0 | 0.00 | 0.00 | 0.00 | 68 | 1012.9 |
| 20260504034636 | 44 | 235 | 0.0 | 3.0 | 0.00 | 0.00 | 0.00 | 67 | 1012.8 |
| 20260504034131 | 44 | 235 | 0.0 | 3.0 | 0.00 | 0.00 | 0.00 | 66 | 1012.8 |
| 20260504033625 | 44 | 235 | 0.0 | 1.0 | 0.00 | 0.00 | 0.00 | 65 | 1012.8 |
| 20260504033118 | 44 | 235 | 0.0 | 1.0 | 0.00 | 0.00 | 0.00 | 65 | 1012.8 |
| 20260504032843 | 44 | 235 | 0.0 | 1.0 | 0.00 | 0.00 | 0.00 | 63 | 1012.7 |
| 20260504032338 | 44 | 235 | 0.0 | 1.0 | 0.00 | 0.00 | 0.00 | 61 | 1012.8 |
| 20260504031601 | 44 | 235 | 0.0 | 1.0 | 0.00 | 0.00 | 0.00 | 61 | 1012.7 |
| 20260504031054 | 44 | 235 | 0.0 | 1.0 | 0.00 | 0.00 | 0.00 | 59 | 1012.7 |
| 20260504030819 | 44 | 235 | 0.0 | 1.0 | 0.00 | 0.00 | 0.00 | 58 | 1012.7 |
| 20260504030043 | 44 | 235 | 0.0 | 1.0 | 0.00 | 0.00 | 0.00 | 55 | 1012.7 |
| 20260504025537 | 45 | 235 | 0.0 | 1.0 | 0.00 | 0.00 | 0.00 | 54 | 1012.6 |
| 20260504025030 | 45 | 235 | 0.0 | 1.0 | 0.00 | 0.00 | 0.00 | 53 | 1012.7 |
| 20260504024757 | 45 | 235 | 0.0 | 0.0 | 0.00 | 0.00 | 0.00 | 52 | 1012.7 |
| 20260504024018 | 45 | 235 | 0.0 | 1.0 | 0.00 | 0.00 | 0.00 | 51 | 1012.8 |
| 20260504023512 | 45 | 235 | 0.0 | 1.0 | 0.00 | 0.00 | 0.00 | 50 | 1012.7 |
| 20260504023006 | 46 | 235 | 0.0 | 0.0 | 0.00 | 0.00 | 0.00 | 49 | 1012.7 |
| 20260504022501 | 46 | 235 | 0.0 | 0.0 | 0.00 | 0.00 | 0.00 | 49 | 1012.7 |
| 20260504021954 | 46 | 235 | 0.0 | 0.0 | 0.00 | 0.00 | 0.00 | 49 | 1012.6 |
| 20260504021720 | 46 | 235 | 0.0 | 0.0 | 0.00 | 0.00 | 0.00 | 48 | 1012.5 |
| 20260504020942 | 47 | 235 | 0.0 | 0.0 | 0.00 | 0.00 | 0.00 | 48 | 1012.6 |
| 20260504020437 | 47 | 235 | 0.0 | 0.0 | 0.00 | 0.00 | 0.00 | 48 | 1012.5 |
| 20260504020158 | 47 | 235 | 0.0 | 0.0 | 0.00 | 0.00 | 0.00 | 47 | 1012.5 |
| 20260504020032 | 47 | 235 | 0.0 | 0.0 | 0.00 | 0.00 | 0.00 | 47 | 1012.6 |
| 20260504014919 | 48 | 235 | 0.0 | 0.0 | 0.00 | 0.00 | 0.00 | 46 | 1012.5 |
| 20260504014412 | 48 | 235 | 0.0 | 0.0 | 0.00 | 0.00 | 0.00 | 46 | 1012.5 |
| 20260504013906 | 49 | 235 | 0.0 | 0.0 | 0.00 | 0.00 | 0.00 | 45 | 1012.4 |
| 20260504013401 | 49 | 235 | 0.0 | 0.0 | 0.00 | 0.00 | 0.00 | 45 | 1012.4 |
| 20260504012854 | 49 | 235 | 0.0 | 0.0 | 0.00 | 0.00 | 0.00 | 44 | 1012.4 |
| 20260504012349 | 50 | 235 | 0.0 | 0.0 | 0.00 | 0.00 | 0.00 | 44 | 1012.3 |
| 20260504012113 | 50 | 235 | 0.0 | 0.0 | 0.00 | 0.00 | 0.00 | 44 | 1012.2 |
| 20260504011337 | 50 | 235 | 0.0 | 0.0 | 0.00 | 0.00 | 0.00 | 44 | 1012.2 |
| 20260504010831 | 51 | 235 | 0.0 | 0.0 | 0.00 | 0.00 | 0.00 | 43 | 1012.1 |
| 20260504010556 | 51 | 235 | 0.0 | 0.0 | 0.00 | 0.00 | 0.00 | 41 | 1012.0 |
| 20260504005818 | 51 | 235 | 0.0 | 0.0 | 0.00 | 0.00 | 0.00 | 40 | 1012.0 |
| 20260504005313 | 51 | 235 | 0.0 | 0.0 | 0.00 | 0.00 | 0.00 | 39 | 1011.9 |
| 20260504004807 | 52 | 235 | 0.0 | 0.0 | 0.00 | 0.00 | 0.00 | 39 | 1011.8 |
| 20260504004300 | 52 | 235 | 0.0 | 0.0 | 0.00 | 0.00 | 0.00 | 38 | 1011.8 |
| 20260504003755 | 53 | 235 | 0.0 | 0.0 | 0.00 | 0.00 | 0.00 | 38 | 1011.7 |
| 20260504003520 | 53 | 235 | 0.0 | 0.0 | 0.00 | 0.00 | 0.00 | 38 | 1011.6 |
| 20260504002744 | 53 | 235 | 0.0 | 0.0 | 0.00 | 0.00 | 0.00 | 38 | 1011.5 |
| 20260504002739 | 53 | 235 | 0.0 | 0.0 | 0.00 | 0.00 | 0.00 | 37 | 1011.5 |
| 20260504001731 | 54 | 235 | 0.0 | 1.0 | 0.00 | 0.00 | 0.00 | 37 | 1011.4 |
| 20260504001225 | 54 | 235 | 1.0 | 1.0 | 0.00 | 0.00 | 0.00 | 37 | 1011.4 |
| 20260504000718 | 55 | 235 | 1.0 | 4.0 | 0.00 | 0.00 | 0.00 | 37 | 1011.2 |
| 20260504000443 | 55 | 235 | 1.0 | 4.0 | 0.00 | 0.00 | 0.00 | 37 | 1011.2 |
| 20260503235938 | 55 | 234 | 1.0 | 3.0 | 0.00 | 0.00 | 0.00 | 36 | 1011.1 |
| 20260503235201 | 56 | 234 | 1.0 | 3.0 | 0.00 | 0.00 | 0.00 | 36 | 1011.1 |
| 20260503234655 | 56 | 234 | 1.0 | 3.0 | 0.00 | 0.00 | 0.00 | 35 | 1011.0 |
| 20260503234149 | 56 | 234 | 1.0 | 4.0 | 0.00 | 0.00 | 0.00 | 36 | 1010.9 |
| 20260503233642 | 56 | 232 | 2.0 | 4.0 | 0.00 | 0.00 | 0.00 | 35 | 1010.9 |
| 20260503233133 | 56 | 227 | 2.0 | 5.0 | 0.00 | 0.00 | 0.00 | 33 | 1010.8 |
| 20260503232629 | 57 | 226 | 2.0 | 11.0 | 0.00 | 0.00 | 0.00 | 32 | 1010.7 |
| 20260503232403 | 57 | 254 | 2.0 | 11.0 | 0.00 | 0.00 | 0.00 | 33 | 1010.7 |
| 20260503231900 | 57 | 243 | 2.0 | 5.0 | 0.00 | 0.00 | 0.00 | 34 | 1010.7 |
| 20260503231125 | 58 | 266 | 2.0 | 8.0 | 0.00 | 0.00 | 0.00 | 34 | 1010.7 |
| 20260503230625 | 58 | 269 | 2.0 | 8.0 | 0.00 | 0.00 | 0.00 | 33 | 1010.7 |
| 20260503230126 | 58 | 243 | 2.0 | 9.0 | 0.00 | 0.00 | 0.00 | 32 | 1010.5 |
| 20260503225627 | 58 | 240 | 3.0 | 9.0 | 0.00 | 0.00 | 0.00 | 31 | 1010.6 |
| 20260503225356 | 58 | 302 | 3.0 | 9.0 | 0.00 | 0.00 | 0.00 | 30 | 1010.5 |
| 20260503224626 | 58 | 259 | 3.0 | 10.0 | 0.00 | 0.00 | 0.00 | 30 | 1010.5 |
| 20260503224126 | 58 | 277 | 3.0 | 10.0 | 0.00 | 0.00 | 0.00 | 31 | 1010.4 |
| 20260503223627 | 58 | 279 | 3.0 | 10.0 | 0.00 | 0.00 | 0.00 | 32 | 1010.5 |
| 20260503223125 | 58 | 265 | 2.0 | 8.0 | 0.00 | 0.00 | 0.00 | 32 | 1010.4 |
| 20260503222624 | 58 | 277 | 2.0 | 6.0 | 0.00 | 0.00 | 0.00 | 32 | 1010.4 |
| 20260503222124 | 58 | 355 | 2.0 | 7.0 | 0.00 | 0.00 | 0.00 | 32 | 1010.3 |
| 20260503221625 | 58 | 331 | 2.0 | 7.0 | 0.00 | 0.00 | 0.00 | 32 | 1010.3 |
| 20260503221122 | 58 | 305 | 2.0 | 5.0 | 0.00 | 0.00 | 0.00 | 31 | 1010.3 |
| 20260503220622 | 58 | 17 | 2.0 | 5.0 | 0.00 | 0.00 | 0.00 | 32 | 1010.3 |
| 20260503220116 | 58 | 21 | 3.0 | 9.0 | 0.00 | 0.00 | 0.00 | 31 | 1010.3 |
| 20260503215611 | 58 | 243 | 3.0 | 9.0 | 0.00 | 0.00 | 0.00 | 31 | 1010.3 |
| 20260503215105 | 58 | 294 | 2.0 | 8.0 | 0.00 | 0.00 | 0.00 | 32 | 1010.3 |
| 20260503214558 | 59 | 339 | 3.0 | 8.0 | 0.00 | 0.00 | 0.00 | 32 | 1010.2 |
| 20260503214053 | 59 | 277 | 3.0 | 9.0 | 0.00 | 0.00 | 0.00 | 32 | 1010.2 |
| 20260503213547 | 59 | 26 | 3.0 | 16.0 | 0.00 | 0.00 | 0.00 | 32 | 1010.2 |
| 20260503213041 | 59 | 284 | 4.0 | 16.0 | 0.00 | 0.00 | 0.00 | 33 | 1010.1 |
| 20260503212535 | 59 | 294 | 4.0 | 11.0 | 0.00 | 0.00 | 0.00 | 33 | 1010.1 |
| 20260503212029 | 59 | 42 | 4.0 | 15.0 | 0.00 | 0.00 | 0.00 | 34 | 1010.0 |
| 20260503211523 | 58 | 355 | 3.0 | 15.0 | 0.00 | 0.00 | 0.00 | 33 | 1010.1 |
| 20260503211016 | 58 | 229 | 3.0 | 11.0 | 0.00 | 0.00 | 0.00 | 34 | 1009.9 |
| 20260503210510 | 58 | 306 | 3.0 | 11.0 | 0.00 | 0.00 | 0.00 | 34 | 1009.9 |
| 20260503210005 | 58 | 348 | 5.0 | 13.0 | 0.00 | 0.00 | 0.00 | 34 | 1010.0 |
| 20260503205458 | 58 | 32 | 5.0 | 13.0 | 0.00 | 0.00 | 0.00 | 34 | 1010.0 |
| 20260503204953 | 58 | 307 | 3.0 | 10.0 | 0.00 | 0.00 | 0.00 | 35 | 1010.0 |
| 20260503204447 | 58 | 340 | 3.0 | 8.0 | 0.00 | 0.00 | 0.00 | 35 | 1010.0 |